sensor_id;sensor_type;location;lat;lon;timestamp;temperature;humidity
66740;DHT22;53653;52.188;8.602;2022-07-09T00:01:16;17.62;86.95
66740;DHT22;53653;52.188;8.602;2022-07-09T00:03:41;17.59;87.30
66740;DHT22;53653;52.188;8.602;2022-07-09T00:06:07;17.55;87.54
66740;DHT22;53653;52.188;8.602;2022-07-09T00:08:33;17.52;87.53
66740;DHT22;53653;52.188;8.602;2022-07-09T00:10:58;17.48;87.55
66740;DHT22;53653;52.188;8.602;2022-07-09T00:13:24;17.45;87.53
66740;DHT22;53653;52.188;8.602;2022-07-09T00:15:49;17.38;87.49
66740;DHT22;53653;52.188;8.602;2022-07-09T00:18:15;17.38;87.58
66740;DHT22;53653;52.188;8.602;2022-07-09T00:20:40;17.35;87.67
66740;DHT22;53653;52.188;8.602;2022-07-09T00:23:06;17.37;87.33
66740;DHT22;53653;52.188;8.602;2022-07-09T00:25:32;17.34;87.21
66740;DHT22;53653;52.188;8.602;2022-07-09T00:27:57;17.37;87.49
66740;DHT22;53653;52.188;8.602;2022-07-09T00:30:23;17.35;87.30
66740;DHT22;53653;52.188;8.602;2022-07-09T00:32:48;17.32;87.22
66740;DHT22;53653;52.188;8.602;2022-07-09T00:35:13;17.31;87.25
66740;DHT22;53653;52.188;8.602;2022-07-09T00:37:39;17.32;87.17
66740;DHT22;53653;52.188;8.602;2022-07-09T00:40:05;17.37;87.30
66740;DHT22;53653;52.188;8.602;2022-07-09T00:42:30;17.37;87.21
66740;DHT22;53653;52.188;8.602;2022-07-09T00:44:57;17.38;87.06
66740;DHT22;53653;52.188;8.602;2022-07-09T00:47:22;17.35;86.84
66740;DHT22;53653;52.188;8.602;2022-07-09T00:49:47;17.35;87.10
66740;DHT22;53653;52.188;8.602;2022-07-09T00:52:14;17.31;87.04
66740;DHT22;53653;52.188;8.602;2022-07-09T00:54:41;17.27;87.04
66740;DHT22;53653;52.188;8.602;2022-07-09T00:57:08;17.23;87.02
66740;DHT22;53653;52.188;8.602;2022-07-09T00:59:34;17.21;87.38
66740;DHT22;53653;52.188;8.602;2022-07-09T01:02:00;17.20;87.47
66740;DHT22;53653;52.188;8.602;2022-07-09T01:04:26;17.18;87.32
66740;DHT22;53653;52.188;8.602;2022-07-09T01:06:51;17.17;87.31
66740;DHT22;53653;52.188;8.602;2022-07-09T01:09:17;17.13;87.67
66740;DHT22;53653;52.188;8.602;2022-07-09T01:11:42;17.13;87.73
66740;DHT22;53653;52.188;8.602;2022-07-09T01:14:08;17.13;87.75
66740;DHT22;53653;52.188;8.602;2022-07-09T01:16:35;17.11;87.84
66740;DHT22;53653;52.188;8.602;2022-07-09T01:19:03;17.10;87.98
66740;DHT22;53653;52.188;8.602;2022-07-09T01:21:28;17.08;88.05
66740;DHT22;53653;52.188;8.602;2022-07-09T01:23:54;17.07;88.06
66740;DHT22;53653;52.188;8.602;2022-07-09T01:26:19;17.10;88.13
66740;DHT22;53653;52.188;8.602;2022-07-09T01:28:48;17.04;88.23
66740;DHT22;53653;52.188;8.602;2022-07-09T01:31:14;17.06;88.32
66740;DHT22;53653;52.188;8.602;2022-07-09T01:33:40;17.04;88.51
66740;DHT22;53653;52.188;8.602;2022-07-09T01:36:08;17.04;88.48
66740;DHT22;53653;52.188;8.602;2022-07-09T01:38:34;17.06;88.41
66740;DHT22;53653;52.188;8.602;2022-07-09T01:40:59;17.02;88.57
66740;DHT22;53653;52.188;8.602;2022-07-09T01:43:25;17.04;88.79
66740;DHT22;53653;52.188;8.602;2022-07-09T01:45:51;17.03;88.70
66740;DHT22;53653;52.188;8.602;2022-07-09T01:48:17;17.00;88.79
66740;DHT22;53653;52.188;8.602;2022-07-09T01:50:42;17.03;88.83
66740;DHT22;53653;52.188;8.602;2022-07-09T01:53:07;17.04;88.77
66740;DHT22;53653;52.188;8.602;2022-07-09T01:55:33;17.03;88.77
66740;DHT22;53653;52.188;8.602;2022-07-09T01:57:58;17.00;88.97
66740;DHT22;53653;52.188;8.602;2022-07-09T02:00:24;16.97;89.05
66740;DHT22;53653;52.188;8.602;2022-07-09T02:02:49;17.02;88.97
66740;DHT22;53653;52.188;8.602;2022-07-09T02:05:15;16.99;88.89
66740;DHT22;53653;52.188;8.602;2022-07-09T02:07:40;16.97;88.97
66740;DHT22;53653;52.188;8.602;2022-07-09T02:10:06;16.94;89.08
66740;DHT22;53653;52.188;8.602;2022-07-09T02:12:31;16.91;89.37
66740;DHT22;53653;52.188;8.602;2022-07-09T02:14:57;16.84;89.46
66740;DHT22;53653;52.188;8.602;2022-07-09T02:17:22;16.86;89.75
66740;DHT22;53653;52.188;8.602;2022-07-09T02:19:48;16.87;89.62
66740;DHT22;53653;52.188;8.602;2022-07-09T02:22:13;16.87;89.68
66740;DHT22;53653;52.188;8.602;2022-07-09T02:24:39;16.90;89.61
66740;DHT22;53653;52.188;8.602;2022-07-09T02:27:05;16.91;89.30
66740;DHT22;53653;52.188;8.602;2022-07-09T02:29:30;16.93;89.30
66740;DHT22;53653;52.188;8.602;2022-07-09T02:31:56;16.89;89.12
66740;DHT22;53653;52.188;8.602;2022-07-09T02:34:23;16.87;89.41
66740;DHT22;53653;52.188;8.602;2022-07-09T02:36:49;16.86;89.57
66740;DHT22;53653;52.188;8.602;2022-07-09T02:39:15;16.90;89.47
66740;DHT22;53653;52.188;8.602;2022-07-09T02:41:40;16.90;89.37
66740;DHT22;53653;52.188;8.602;2022-07-09T02:44:05;16.86;89.36
66740;DHT22;53653;52.188;8.602;2022-07-09T02:46:31;16.81;89.77
66740;DHT22;53653;52.188;8.602;2022-07-09T02:48:56;16.73;90.15
66740;DHT22;53653;52.188;8.602;2022-07-09T02:51:22;16.62;90.43
66740;DHT22;53653;52.188;8.602;2022-07-09T02:53:47;16.65;90.41
66740;DHT22;53653;52.188;8.602;2022-07-09T02:56:13;16.69;90.38
66740;DHT22;53653;52.188;8.602;2022-07-09T02:58:38;16.72;90.18
66740;DHT22;53653;52.188;8.602;2022-07-09T03:01:04;16.72;89.95
66740;DHT22;53653;52.188;8.602;2022-07-09T03:03:31;16.79;89.74
66740;DHT22;53653;52.188;8.602;2022-07-09T03:05:57;16.77;89.77
66740;DHT22;53653;52.188;8.602;2022-07-09T03:08:22;16.83;89.67
66740;DHT22;53653;52.188;8.602;2022-07-09T03:10:49;16.79;89.71
66740;DHT22;53653;52.188;8.602;2022-07-09T03:13:17;16.83;89.75
66740;DHT22;53653;52.188;8.602;2022-07-09T03:15:43;16.81;89.59
66740;DHT22;53653;52.188;8.602;2022-07-09T03:18:08;16.83;89.47
66740;DHT22;53653;52.188;8.602;2022-07-09T03:20:37;16.84;89.26
66740;DHT22;53653;52.188;8.602;2022-07-09T03:23:04;16.80;89.45
66740;DHT22;53653;52.188;8.602;2022-07-09T03:25:29;16.72;89.98
66740;DHT22;53653;52.188;8.602;2022-07-09T03:27:55;16.69;90.23
66740;DHT22;53653;52.188;8.602;2022-07-09T03:30:20;16.66;90.36
66740;DHT22;53653;52.188;8.602;2022-07-09T03:32:46;16.66;90.41
66740;DHT22;53653;52.188;8.602;2022-07-09T03:35:11;16.66;90.40
66740;DHT22;53653;52.188;8.602;2022-07-09T03:37:37;16.65;90.45
66740;DHT22;53653;52.188;8.602;2022-07-09T03:40:03;16.63;90.54
66740;DHT22;53653;52.188;8.602;2022-07-09T03:42:28;16.62;90.68
66740;DHT22;53653;52.188;8.602;2022-07-09T03:44:54;16.60;90.78
66740;DHT22;53653;52.188;8.602;2022-07-09T03:47:19;16.62;90.84
66740;DHT22;53653;52.188;8.602;2022-07-09T03:49:45;16.63;90.71
66740;DHT22;53653;52.188;8.602;2022-07-09T03:52:10;16.68;90.83
66740;DHT22;53653;52.188;8.602;2022-07-09T03:54:36;16.62;90.90
66740;DHT22;53653;52.188;8.602;2022-07-09T03:57:01;16.63;90.93
66740;DHT22;53653;52.188;8.602;2022-07-09T03:59:26;16.65;90.72
66740;DHT22;53653;52.188;8.602;2022-07-09T04:01:52;16.69;90.70
66740;DHT22;53653;52.188;8.602;2022-07-09T04:04:17;16.72;90.49
66740;DHT22;53653;52.188;8.602;2022-07-09T04:06:43;16.76;90.59
66740;DHT22;53653;52.188;8.602;2022-07-09T04:09:08;16.79;90.62
66740;DHT22;53653;52.188;8.602;2022-07-09T04:11:34;16.77;90.50
66740;DHT22;53653;52.188;8.602;2022-07-09T04:14:00;16.83;90.58
66740;DHT22;53653;52.188;8.602;2022-07-09T04:16:26;16.86;90.52
66740;DHT22;53653;52.188;8.602;2022-07-09T04:18:52;16.91;90.23
66740;DHT22;53653;52.188;8.602;2022-07-09T04:21:17;16.93;90.26
66740;DHT22;53653;52.188;8.602;2022-07-09T04:23:43;16.94;90.25
66740;DHT22;53653;52.188;8.602;2022-07-09T04:26:08;16.97;90.11
66740;DHT22;53653;52.188;8.602;2022-07-09T04:28:37;16.97;90.17
66740;DHT22;53653;52.188;8.602;2022-07-09T04:31:03;17.03;90.20
66740;DHT22;53653;52.188;8.602;2022-07-09T04:33:29;17.08;89.73
66740;DHT22;53653;52.188;8.602;2022-07-09T04:35:54;17.08;89.84
66740;DHT22;53653;52.188;8.602;2022-07-09T04:38:20;17.11;90.09
66740;DHT22;53653;52.188;8.602;2022-07-09T04:40:45;17.13;90.04
66740;DHT22;53653;52.188;8.602;2022-07-09T04:43:10;17.20;89.66
66740;DHT22;53653;52.188;8.602;2022-07-09T04:45:36;17.21;89.54
66740;DHT22;53653;52.188;8.602;2022-07-09T04:48:01;17.23;89.41
66740;DHT22;53653;52.188;8.602;2022-07-09T04:50:27;17.23;89.63
66740;DHT22;53653;52.188;8.602;2022-07-09T04:52:52;17.24;89.47
66740;DHT22;53653;52.188;8.602;2022-07-09T04:55:18;17.26;89.53
66740;DHT22;53653;52.188;8.602;2022-07-09T04:57:44;17.24;89.54
66740;DHT22;53653;52.188;8.602;2022-07-09T05:00:10;17.26;89.42
66740;DHT22;53653;52.188;8.602;2022-07-09T05:02:37;17.24;89.66
66740;DHT22;53653;52.188;8.602;2022-07-09T05:05:03;17.20;89.89
66740;DHT22;53653;52.188;8.602;2022-07-09T05:07:30;17.21;89.75
66740;DHT22;53653;52.188;8.602;2022-07-09T05:09:56;17.24;89.94
66740;DHT22;53653;52.188;8.602;2022-07-09T05:12:22;17.30;89.68
66740;DHT22;53653;52.188;8.602;2022-07-09T05:14:47;17.34;89.51
66740;DHT22;53653;52.188;8.602;2022-07-09T05:17:13;17.42;88.93
66740;DHT22;53653;52.188;8.602;2022-07-09T05:19:38;17.44;89.01
66740;DHT22;53653;52.188;8.602;2022-07-09T05:22:04;17.44;89.28
66740;DHT22;53653;52.188;8.602;2022-07-09T05:24:29;17.47;89.01
66740;DHT22;53653;52.188;8.602;2022-07-09T05:26:55;17.47;89.10
66740;DHT22;53653;52.188;8.602;2022-07-09T05:29:20;17.52;88.92
66740;DHT22;53653;52.188;8.602;2022-07-09T05:31:48;17.52;88.73
66740;DHT22;53653;52.188;8.602;2022-07-09T05:34:14;17.58;88.04
66740;DHT22;53653;52.188;8.602;2022-07-09T05:36:39;17.58;87.97
66740;DHT22;53653;52.188;8.602;2022-07-09T05:39:05;17.58;88.35
66740;DHT22;53653;52.188;8.602;2022-07-09T05:41:32;17.59;88.16
66740;DHT22;53653;52.188;8.602;2022-07-09T05:43:57;17.64;88.12
66740;DHT22;53653;52.188;8.602;2022-07-09T05:46:23;17.66;87.91
66740;DHT22;53653;52.188;8.602;2022-07-09T05:48:48;17.72;86.79
66740;DHT22;53653;52.188;8.602;2022-07-09T05:51:14;17.81;86.87
66740;DHT22;53653;52.188;8.602;2022-07-09T05:53:39;17.87;87.05
66740;DHT22;53653;52.188;8.602;2022-07-09T05:56:04;17.95;86.16
66740;DHT22;53653;52.188;8.602;2022-07-09T05:58:31;18.00;86.60
66740;DHT22;53653;52.188;8.602;2022-07-09T06:00:56;18.07;85.89
66740;DHT22;53653;52.188;8.602;2022-07-09T06:03:22;18.00;85.87
66740;DHT22;53653;52.188;8.602;2022-07-09T06:05:47;17.96;86.04
66740;DHT22;53653;52.188;8.602;2022-07-09T06:08:13;17.97;86.18
66740;DHT22;53653;52.188;8.602;2022-07-09T06:10:38;18.04;85.89
66740;DHT22;53653;52.188;8.602;2022-07-09T06:13:04;18.00;84.69
66740;DHT22;53653;52.188;8.602;2022-07-09T06:15:29;18.04;84.30
66740;DHT22;53653;52.188;8.602;2022-07-09T06:17:55;18.20;83.55
66740;DHT22;53653;52.188;8.602;2022-07-09T06:20:20;18.26;82.75
66740;DHT22;53653;52.188;8.602;2022-07-09T06:22:46;18.20;82.38
66740;DHT22;53653;52.188;8.602;2022-07-09T06:25:11;18.16;82.23
66740;DHT22;53653;52.188;8.602;2022-07-09T06:27:37;18.20;82.50
66740;DHT22;53653;52.188;8.602;2022-07-09T06:30:03;18.34;82.58
66740;DHT22;53653;52.188;8.602;2022-07-09T06:32:28;18.48;81.04
66740;DHT22;53653;52.188;8.602;2022-07-09T06:34:54;18.75;80.24
66740;DHT22;53653;52.188;8.602;2022-07-09T06:37:20;19.27;78.90
66740;DHT22;53653;52.188;8.602;2022-07-09T06:39:45;19.64;77.57
66740;DHT22;53653;52.188;8.602;2022-07-09T06:42:12;19.85;76.46
66740;DHT22;53653;52.188;8.602;2022-07-09T06:44:38;20.19;76.28
66740;DHT22;53653;52.188;8.602;2022-07-09T06:47:04;20.60;73.95
66740;DHT22;53653;52.188;8.602;2022-07-09T06:49:31;20.70;73.30
66740;DHT22;53653;52.188;8.602;2022-07-09T06:51:56;20.87;72.43
66740;DHT22;53653;52.188;8.602;2022-07-09T06:54:22;20.80;72.53
66740;DHT22;53653;52.188;8.602;2022-07-09T06:56:48;20.53;72.94
66740;DHT22;53653;52.188;8.602;2022-07-09T06:59:13;20.63;72.31
66740;DHT22;53653;52.188;8.602;2022-07-09T07:01:39;20.86;71.71
66740;DHT22;53653;52.188;8.602;2022-07-09T07:04:06;20.62;72.41
66740;DHT22;53653;52.188;8.602;2022-07-09T07:06:31;20.73;71.55
66740;DHT22;53653;52.188;8.602;2022-07-09T07:08:57;20.29;71.98
66740;DHT22;53653;52.188;8.602;2022-07-09T07:11:22;20.35;72.33
66740;DHT22;53653;52.188;8.602;2022-07-09T07:13:47;20.84;71.59
66740;DHT22;53653;52.188;8.602;2022-07-09T07:16:13;21.31;69.60
66740;DHT22;53653;52.188;8.602;2022-07-09T07:18:39;21.38;68.58
66740;DHT22;53653;52.188;8.602;2022-07-09T07:21:05;21.25;68.03
66740;DHT22;53653;52.188;8.602;2022-07-09T07:23:30;21.63;67.72
66740;DHT22;53653;52.188;8.602;2022-07-09T07:26:00;21.78;67.81
66740;DHT22;53653;52.188;8.602;2022-07-09T07:28:26;22.22;66.99
66740;DHT22;53653;52.188;8.602;2022-07-09T07:30:51;21.94;65.94
66740;DHT22;53653;52.188;8.602;2022-07-09T07:33:17;21.42;67.82
66740;DHT22;53653;52.188;8.602;2022-07-09T07:35:43;21.25;67.93
66740;DHT22;53653;52.188;8.602;2022-07-09T07:38:09;20.98;69.58
66740;DHT22;53653;52.188;8.602;2022-07-09T07:40:35;21.30;68.15
66740;DHT22;53653;52.188;8.602;2022-07-09T07:43:01;21.82;66.70
66740;DHT22;53653;52.188;8.602;2022-07-09T07:45:27;21.67;65.99
66740;DHT22;53653;52.188;8.602;2022-07-09T07:47:52;21.61;66.40
66740;DHT22;53653;52.188;8.602;2022-07-09T07:50:20;21.31;67.42
66740;DHT22;53653;52.188;8.602;2022-07-09T07:52:46;21.32;67.79
66740;DHT22;53653;52.188;8.602;2022-07-09T07:55:11;21.15;68.09
66740;DHT22;53653;52.188;8.602;2022-07-09T07:57:36;21.28;67.26
66740;DHT22;53653;52.188;8.602;2022-07-09T08:00:04;21.69;66.45
66740;DHT22;53653;52.188;8.602;2022-07-09T08:02:30;21.75;65.50
66740;DHT22;53653;52.188;8.602;2022-07-09T08:04:55;22.11;64.10
66740;DHT22;53653;52.188;8.602;2022-07-09T08:07:21;21.86;64.34
66740;DHT22;53653;52.188;8.602;2022-07-09T08:09:46;21.82;64.11
66740;DHT22;53653;52.188;8.602;2022-07-09T08:12:12;21.67;64.37
66740;DHT22;53653;52.188;8.602;2022-07-09T08:14:37;21.76;65.04
66740;DHT22;53653;52.188;8.602;2022-07-09T08:17:03;21.63;65.17
66740;DHT22;53653;52.188;8.602;2022-07-09T08:19:28;21.56;64.84
66740;DHT22;53653;52.188;8.602;2022-07-09T08:21:54;21.45;65.66
66740;DHT22;53653;52.188;8.602;2022-07-09T08:24:19;21.31;66.41
66740;DHT22;53653;52.188;8.602;2022-07-09T08:26:45;21.32;66.60
66740;DHT22;53653;52.188;8.602;2022-07-09T08:29:10;21.08;67.54
66740;DHT22;53653;52.188;8.602;2022-07-09T08:31:36;20.91;67.86
66740;DHT22;53653;52.188;8.602;2022-07-09T08:34:01;20.91;68.61
66740;DHT22;53653;52.188;8.602;2022-07-09T08:36:27;20.87;68.45
66740;DHT22;53653;52.188;8.602;2022-07-09T08:38:52;21.04;68.46
66740;DHT22;53653;52.188;8.602;2022-07-09T08:41:18;21.07;67.12
66740;DHT22;53653;52.188;8.602;2022-07-09T08:43:51;21.03;67.24
66740;DHT22;53653;52.188;8.602;2022-07-09T08:46:17;21.08;67.90
66740;DHT22;53653;52.188;8.602;2022-07-09T08:48:44;21.14;67.04
66740;DHT22;53653;52.188;8.602;2022-07-09T08:51:10;21.14;67.43
66740;DHT22;53653;52.188;8.602;2022-07-09T08:53:44;21.17;67.97
66740;DHT22;53653;52.188;8.602;2022-07-09T08:56:10;21.28;67.83
66740;DHT22;53653;52.188;8.602;2022-07-09T08:58:38;21.21;66.99
66740;DHT22;53653;52.188;8.602;2022-07-09T09:01:03;21.05;67.05
66740;DHT22;53653;52.188;8.602;2022-07-09T09:03:30;20.86;67.59
66740;DHT22;53653;52.188;8.602;2022-07-09T09:06:07;20.73;68.39
66740;DHT22;53653;52.188;8.602;2022-07-09T09:08:44;20.66;69.16
66740;DHT22;53653;52.188;8.602;2022-07-09T09:11:20;20.63;68.98
66740;DHT22;53653;52.188;8.602;2022-07-09T09:13:47;20.65;68.70
66740;DHT22;53653;52.188;8.602;2022-07-09T09:16:14;20.56;68.68
66740;DHT22;53653;52.188;8.602;2022-07-09T09:18:47;20.63;68.70
66740;DHT22;53653;52.188;8.602;2022-07-09T09:21:13;20.70;68.34
66740;DHT22;53653;52.188;8.602;2022-07-09T09:23:43;20.76;68.61
66740;DHT22;53653;52.188;8.602;2022-07-09T09:26:29;20.91;67.08
66740;DHT22;53653;52.188;8.602;2022-07-09T09:28:59;21.24;66.99
66740;DHT22;53653;52.188;8.602;2022-07-09T09:31:28;21.27;66.21
66740;DHT22;53653;52.188;8.602;2022-07-09T09:34:17;21.10;66.08
66740;DHT22;53653;52.188;8.602;2022-07-09T09:36:43;21.21;66.61
66740;DHT22;53653;52.188;8.602;2022-07-09T09:39:20;21.27;66.07
66740;DHT22;53653;52.188;8.602;2022-07-09T09:44:14;21.11;66.38
66740;DHT22;53653;52.188;8.602;2022-07-09T09:46:41;21.20;66.81
66740;DHT22;53653;52.188;8.602;2022-07-09T09:49:08;21.25;66.14
66740;DHT22;53653;52.188;8.602;2022-07-09T09:51:36;21.25;66.01
66740;DHT22;53653;52.188;8.602;2022-07-09T09:54:04;21.32;66.39
66740;DHT22;53653;52.188;8.602;2022-07-09T09:56:31;21.35;64.35
66740;DHT22;53653;52.188;8.602;2022-07-09T09:58:59;21.38;64.91
66740;DHT22;53653;52.188;8.602;2022-07-09T10:01:25;21.52;65.06
66740;DHT22;53653;52.188;8.602;2022-07-09T10:03:51;21.88;63.91
66740;DHT22;53653;52.188;8.602;2022-07-09T10:06:17;22.40;62.35
66740;DHT22;53653;52.188;8.602;2022-07-09T10:08:42;22.51;62.52
66740;DHT22;53653;52.188;8.602;2022-07-09T10:11:07;22.14;62.13
66740;DHT22;53653;52.188;8.602;2022-07-09T10:13:33;21.76;63.98
66740;DHT22;53653;52.188;8.602;2022-07-09T10:16:02;21.76;64.09
66740;DHT22;53653;52.188;8.602;2022-07-09T10:18:27;22.00;63.26
66740;DHT22;53653;52.188;8.602;2022-07-09T10:20:56;22.10;62.28
66740;DHT22;53653;52.188;8.602;2022-07-09T10:23:23;22.62;60.66
66740;DHT22;53653;52.188;8.602;2022-07-09T10:25:50;23.13;60.36
66740;DHT22;53653;52.188;8.602;2022-07-09T10:28:22;23.34;58.42
66740;DHT22;53653;52.188;8.602;2022-07-09T10:30:48;23.24;59.21
66740;DHT22;53653;52.188;8.602;2022-07-09T10:33:21;22.73;60.71
66740;DHT22;53653;52.188;8.602;2022-07-09T10:35:49;22.62;60.51
66740;DHT22;53653;52.188;8.602;2022-07-09T10:38:19;22.61;59.80
66740;DHT22;53653;52.188;8.602;2022-07-09T10:40:56;23.00;58.97
66740;DHT22;53653;52.188;8.602;2022-07-09T10:43:40;23.75;57.75
66740;DHT22;53653;52.188;8.602;2022-07-09T10:46:13;23.95;57.02
66740;DHT22;53653;52.188;8.602;2022-07-09T10:48:39;23.86;56.55
66740;DHT22;53653;52.188;8.602;2022-07-09T10:51:04;23.39;57.02
66740;DHT22;53653;52.188;8.602;2022-07-09T10:53:30;23.17;57.84
66740;DHT22;53653;52.188;8.602;2022-07-09T10:55:56;23.02;58.13
66740;DHT22;53653;52.188;8.602;2022-07-09T10:58:24;22.85;58.58
66740;DHT22;53653;52.188;8.602;2022-07-09T11:00:59;22.75;58.69
66740;DHT22;53653;52.188;8.602;2022-07-09T11:03:30;23.49;57.31
66740;DHT22;53653;52.188;8.602;2022-07-09T11:05:56;24.23;55.69
66740;DHT22;53653;52.188;8.602;2022-07-09T11:08:22;23.67;55.49
66740;DHT22;53653;52.188;8.602;2022-07-09T11:10:47;23.19;55.96
66740;DHT22;53653;52.188;8.602;2022-07-09T11:13:13;22.71;57.53
66740;DHT22;53653;52.188;8.602;2022-07-09T11:15:38;22.72;58.33
66740;DHT22;53653;52.188;8.602;2022-07-09T11:18:05;22.55;58.71
66740;DHT22;53653;52.188;8.602;2022-07-09T11:20:38;22.38;58.91
66740;DHT22;53653;52.188;8.602;2022-07-09T11:23:03;22.36;58.82
66740;DHT22;53653;52.188;8.602;2022-07-09T11:25:29;22.33;58.67
66740;DHT22;53653;52.188;8.602;2022-07-09T11:27:56;22.88;57.08
66740;DHT22;53653;52.188;8.602;2022-07-09T11:30:21;23.06;57.44
66740;DHT22;53653;52.188;8.602;2022-07-09T11:32:47;22.89;57.52
66740;DHT22;53653;52.188;8.602;2022-07-09T11:35:23;22.75;57.64
66740;DHT22;53653;52.188;8.602;2022-07-09T11:37:48;22.78;56.87
66740;DHT22;53653;52.188;8.602;2022-07-09T11:40:18;22.44;57.53
66740;DHT22;53653;52.188;8.602;2022-07-09T11:42:44;22.21;58.37
66740;DHT22;53653;52.188;8.602;2022-07-09T11:45:09;22.09;58.88
66740;DHT22;53653;52.188;8.602;2022-07-09T11:47:36;21.93;60.31
66740;DHT22;53653;52.188;8.602;2022-07-09T11:50:10;21.90;61.13
66740;DHT22;53653;52.188;8.602;2022-07-09T11:52:46;21.80;62.93
66740;DHT22;53653;52.188;8.602;2022-07-09T11:55:14;21.53;64.45
66740;DHT22;53653;52.188;8.602;2022-07-09T11:57:50;21.24;65.99
66740;DHT22;53653;52.188;8.602;2022-07-09T12:00:25;21.18;67.01
66740;DHT22;53653;52.188;8.602;2022-07-09T12:02:51;21.07;67.71
66740;DHT22;53653;52.188;8.602;2022-07-09T12:05:32;21.52;68.13
66740;DHT22;53653;52.188;8.602;2022-07-09T12:08:00;22.11;65.85
66740;DHT22;53653;52.188;8.602;2022-07-09T12:10:29;22.11;66.81
66740;DHT22;53653;52.188;8.602;2022-07-09T12:12:55;22.38;64.72
66740;DHT22;53653;52.188;8.602;2022-07-09T12:15:21;22.98;65.13
66740;DHT22;53653;52.188;8.602;2022-07-09T12:17:54;23.28;62.62
66740;DHT22;53653;52.188;8.602;2022-07-09T12:20:21;23.49;60.73
66740;DHT22;53653;52.188;8.602;2022-07-09T12:22:47;23.77;59.97
66740;DHT22;53653;52.188;8.602;2022-07-09T12:25:12;23.92;57.24
66740;DHT22;53653;52.188;8.602;2022-07-09T12:27:39;24.22;56.71
66740;DHT22;53653;52.188;8.602;2022-07-09T12:30:06;24.39;55.38
66740;DHT22;53653;52.188;8.602;2022-07-09T12:32:31;24.35;54.04
66740;DHT22;53653;52.188;8.602;2022-07-09T12:34:57;24.22;54.19
66740;DHT22;53653;52.188;8.602;2022-07-09T12:37:22;24.29;52.96
66740;DHT22;53653;52.188;8.602;2022-07-09T12:39:48;24.43;51.93
66740;DHT22;53653;52.188;8.602;2022-07-09T12:42:14;24.64;49.76
66740;DHT22;53653;52.188;8.602;2022-07-09T12:44:40;24.84;49.04
66740;DHT22;53653;52.188;8.602;2022-07-09T12:47:05;24.95;48.30
66740;DHT22;53653;52.188;8.602;2022-07-09T12:49:31;25.35;49.02
66740;DHT22;53653;52.188;8.602;2022-07-09T12:51:56;25.34;45.42
66740;DHT22;53653;52.188;8.602;2022-07-09T12:54:21;25.55;45.59
66740;DHT22;53653;52.188;8.602;2022-07-09T12:56:47;25.69;45.32
66740;DHT22;53653;52.188;8.602;2022-07-09T12:59:16;25.52;45.33
66740;DHT22;53653;52.188;8.602;2022-07-09T13:01:42;25.12;45.59
66740;DHT22;53653;52.188;8.602;2022-07-09T13:04:07;24.79;45.98
66740;DHT22;53653;52.188;8.602;2022-07-09T13:06:33;24.49;46.04
66740;DHT22;53653;52.188;8.602;2022-07-09T13:09:01;24.12;47.52
66740;DHT22;53653;52.188;8.602;2022-07-09T13:11:27;23.97;48.84
66740;DHT22;53653;52.188;8.602;2022-07-09T13:13:53;23.86;48.28
66740;DHT22;53653;52.188;8.602;2022-07-09T13:16:18;23.94;49.08
66740;DHT22;53653;52.188;8.602;2022-07-09T13:18:44;23.92;49.75
66740;DHT22;53653;52.188;8.602;2022-07-09T13:21:10;23.82;50.59
66740;DHT22;53653;52.188;8.602;2022-07-09T13:23:35;23.67;51.38
66740;DHT22;53653;52.188;8.602;2022-07-09T13:26:02;23.15;52.24
66740;DHT22;53653;52.188;8.602;2022-07-09T13:28:28;22.92;52.83
66740;DHT22;53653;52.188;8.602;2022-07-09T13:30:53;22.59;52.91
66740;DHT22;53653;52.188;8.602;2022-07-09T13:33:19;22.49;53.77
66740;DHT22;53653;52.188;8.602;2022-07-09T13:35:44;22.41;54.39
66740;DHT22;53653;52.188;8.602;2022-07-09T13:38:10;22.40;54.57
66740;DHT22;53653;52.188;8.602;2022-07-09T13:40:35;22.40;54.95
66740;DHT22;53653;52.188;8.602;2022-07-09T13:43:01;22.36;54.75
66740;DHT22;53653;52.188;8.602;2022-07-09T13:45:27;22.51;53.32
66740;DHT22;53653;52.188;8.602;2022-07-09T13:47:53;22.54;52.80
66740;DHT22;53653;52.188;8.602;2022-07-09T13:50:19;22.72;52.41
66740;DHT22;53653;52.188;8.602;2022-07-09T13:52:45;22.94;52.41
66740;DHT22;53653;52.188;8.602;2022-07-09T13:55:10;23.05;51.96
66740;DHT22;53653;52.188;8.602;2022-07-09T13:57:36;23.40;51.80
66740;DHT22;53653;52.188;8.602;2022-07-09T14:00:04;23.73;50.36
66740;DHT22;53653;52.188;8.602;2022-07-09T14:02:30;23.97;51.45
66740;DHT22;53653;52.188;8.602;2022-07-09T14:04:57;24.04;49.92
66740;DHT22;53653;52.188;8.602;2022-07-09T14:07:23;23.88;50.58
66740;DHT22;53653;52.188;8.602;2022-07-09T14:09:48;23.92;49.41
66740;DHT22;53653;52.188;8.602;2022-07-09T14:12:14;24.00;48.57
66740;DHT22;53653;52.188;8.602;2022-07-09T14:14:41;23.75;48.87
66740;DHT22;53653;52.188;8.602;2022-07-09T14:17:07;23.75;49.94
66740;DHT22;53653;52.188;8.602;2022-07-09T14:19:32;24.05;49.92
66740;DHT22;53653;52.188;8.602;2022-07-09T14:21:57;24.08;49.32
66740;DHT22;53653;52.188;8.602;2022-07-09T14:24:23;23.98;49.22
66740;DHT22;53653;52.188;8.602;2022-07-09T14:26:48;24.33;49.30
66740;DHT22;53653;52.188;8.602;2022-07-09T14:29:14;24.19;48.68
66740;DHT22;53653;52.188;8.602;2022-07-09T14:31:39;24.15;47.94
66740;DHT22;53653;52.188;8.602;2022-07-09T14:34:05;24.25;47.49
66740;DHT22;53653;52.188;8.602;2022-07-09T14:36:30;24.33;48.00
66740;DHT22;53653;52.188;8.602;2022-07-09T14:38:56;24.29;46.33
66740;DHT22;53653;52.188;8.602;2022-07-09T14:41:22;24.37;46.66
66740;DHT22;53653;52.188;8.602;2022-07-09T14:43:47;24.59;46.78
66740;DHT22;53653;52.188;8.602;2022-07-09T14:46:13;24.73;46.55
66740;DHT22;53653;52.188;8.602;2022-07-09T14:48:38;24.81;46.83
66740;DHT22;53653;52.188;8.602;2022-07-09T14:51:06;25.01;45.85
66740;DHT22;53653;52.188;8.602;2022-07-09T14:53:32;25.14;45.52
66740;DHT22;53653;52.188;8.602;2022-07-09T14:55:57;25.28;46.18
66740;DHT22;53653;52.188;8.602;2022-07-09T14:58:23;25.00;47.97
66740;DHT22;53653;52.188;8.602;2022-07-09T15:00:48;24.16;50.52
66740;DHT22;53653;52.188;8.602;2022-07-09T15:03:14;24.21;51.12
66740;DHT22;53653;52.188;8.602;2022-07-09T15:05:39;24.36;51.13
66740;DHT22;53653;52.188;8.602;2022-07-09T15:08:04;24.57;50.29
66740;DHT22;53653;52.188;8.602;2022-07-09T15:10:30;24.48;50.45
66740;DHT22;53653;52.188;8.602;2022-07-09T15:12:55;24.23;50.68
66740;DHT22;53653;52.188;8.602;2022-07-09T15:15:21;24.25;50.75
66740;DHT22;53653;52.188;8.602;2022-07-09T15:17:46;24.40;50.22
66740;DHT22;53653;52.188;8.602;2022-07-09T15:20:12;24.30;50.00
66740;DHT22;53653;52.188;8.602;2022-07-09T15:22:37;24.11;50.78
66740;DHT22;53653;52.188;8.602;2022-07-09T15:25:03;23.71;52.19
66740;DHT22;53653;52.188;8.602;2022-07-09T15:27:32;23.30;52.84